Walmsley, Virginia
Current Conditions -  °F | °C
As of 6:53 AM on Thursday 23 Oct 2014 (Local Time) from KNUI Reporting Station
Overcast Overcast  
Wind Chill: 53°   Ceiling: 4100
Heat Index: 53°   Visibility: 10mi
Dew Point: 41°   Wind: 12mph
Humidity: 64%   Direction: 300°WNW
Pressure: 29.85"   Gusts: 20mph
Location:  37.9748°N, 76.5747°W
Report Text: KNUI 231053Z AUTO 30010G17KT 10SM BKN041 BKN050 OVC060 12/05 A2985 RMK AO2 SLP108 T01170050
Loading
Personal Weather Stations






























Interactive Weather Map
Tropical Storm Tracking
New forecast layout! Learn more

10-Day Weather Forecast

Advertisements
Track Severe Weather on mobile